createdAt,value
2017-09-27T00:00:56.077Z,12.66
2017-09-27T00:01:50.167Z,12.64
2017-09-27T00:02:38.159Z,12.65
2017-09-27T00:03:27.451Z,12.63
2017-09-27T00:04:15.272Z,12.60
2017-09-27T00:05:03.326Z,12.56
2017-09-27T00:05:52.822Z,12.61
2017-09-27T00:06:47.351Z,12.60
2017-09-27T00:07:36.439Z,12.58
2017-09-27T00:08:31.470Z,12.58
2017-09-27T00:09:31.468Z,12.55
2017-09-27T00:10:25.776Z,12.54
2017-09-27T00:11:31.541Z,12.57
2017-09-27T00:12:31.558Z,12.58
2017-09-27T00:13:26.597Z,12.60
2017-09-27T00:14:26.604Z,12.60
2017-09-27T00:15:26.842Z,12.55
2017-09-27T00:16:26.672Z,12.56
2017-09-27T00:17:32.709Z,12.64
2017-09-27T00:18:32.764Z,12.66
2017-09-27T00:19:26.775Z,12.64
2017-09-27T00:20:27.000Z,12.60
2017-09-27T00:21:22.042Z,12.62
2017-09-27T00:22:09.870Z,12.61
2017-09-27T00:22:57.930Z,12.60
2017-09-27T00:23:45.971Z,12.59
2017-09-27T00:24:35.025Z,12.58
2017-09-27T00:25:23.139Z,12.54
2017-09-27T00:26:11.075Z,12.54
2017-09-27T00:27:05.095Z,12.54
2017-09-27T00:27:53.159Z,12.52
2017-09-27T00:28:42.228Z,12.54
2017-09-27T00:29:37.271Z,12.54
2017-09-27T00:30:37.500Z,12.52
2017-09-27T00:31:37.281Z,12.51
2017-09-27T00:32:26.350Z,12.48
2017-09-27T00:33:14.367Z,12.46
2017-09-27T00:34:03.440Z,12.50
2017-09-27T00:34:58.487Z,12.48
2017-09-27T00:35:47.784Z,12.50
2017-09-27T00:36:35.553Z,12.52
2017-09-27T00:37:29.572Z,12.54
2017-09-27T00:38:24.590Z,12.52
2017-09-27T00:39:24.660Z,12.53
2017-09-27T00:40:18.685Z,12.51
2017-09-27T00:41:18.917Z,12.50
2017-09-27T00:42:13.888Z,12.51
2017-09-27T00:43:08.786Z,12.45
2017-09-27T00:44:08.845Z,12.42
2017-09-27T00:45:04.141Z,12.42
2017-09-27T00:45:59.071Z,12.43
2017-09-27T00:46:59.072Z,12.43
2017-09-27T00:47:53.953Z,12.48
2017-09-27T00:48:47.976Z,12.49
2017-09-27T00:49:43.027Z,12.48
2017-09-27T00:50:37.298Z,12.44
2017-09-27T00:51:32.128Z,12.48
2017-09-27T00:52:21.203Z,12.50
2017-09-27T00:53:16.213Z,12.48
2017-09-27T00:54:11.175Z,12.46
2017-09-27T00:55:06.329Z,12.51
2017-09-27T00:56:01.262Z,12.54
2017-09-27T00:56:56.325Z,12.52
2017-09-27T00:57:50.349Z,12.52
2017-09-27T00:58:45.361Z,12.49
2017-09-27T00:59:45.378Z,12.45
2017-09-27T01:00:40.518Z,12.48
2017-09-27T01:01:35.463Z,12.50
2017-09-27T01:02:29.537Z,12.48
2017-09-27T01:03:23.550Z,12.46
2017-09-27T01:04:11.569Z,12.46
2017-09-27T01:05:00.589Z,12.46
2017-09-27T01:05:48.932Z,12.40
2017-09-27T01:06:36.689Z,12.40
2017-09-27T01:07:25.760Z,12.43
2017-09-27T01:08:13.827Z,12.43
2017-09-27T01:09:01.837Z,12.46
2017-09-27T01:09:50.965Z,12.48
2017-09-27T01:10:38.934Z,12.48
2017-09-27T01:11:27.961Z,12.50
2017-09-27T01:12:15.980Z,12.46
2017-09-27T01:13:04.055Z,12.44
2017-09-27T01:13:53.078Z,12.42
2017-09-27T01:14:41.095Z,12.42
2017-09-27T01:15:30.395Z,12.38
2017-09-27T01:16:18.178Z,12.44
2017-09-27T01:17:12.366Z,12.47
2017-09-27T01:18:00.273Z,12.46
2017-09-27T01:18:54.357Z,12.48
2017-09-27T01:19:42.364Z,12.47
2017-09-27T01:20:30.349Z,12.46
2017-09-27T01:21:18.455Z,12.50
2017-09-27T01:22:06.474Z,12.49
2017-09-27T01:22:55.544Z,12.51
2017-09-27T01:23:43.572Z,12.50
2017-09-27T01:24:32.882Z,12.48
2017-09-27T01:25:20.657Z,12.44
2017-09-27T01:26:08.675Z,12.43
2017-09-27T01:26:56.747Z,12.40
2017-09-27T01:27:45.767Z,12.38
2017-09-27T01:28:33.832Z,12.32
2017-09-27T01:29:22.900Z,12.33
2017-09-27T01:30:11.043Z,12.29
2017-09-27T01:30:58.976Z,12.32
2017-09-27T01:31:52.972Z,12.34
2017-09-27T01:32:41.032Z,12.37
2017-09-27T01:33:30.059Z,12.36
2017-09-27T01:34:18.085Z,12.36
2017-09-27T01:35:06.260Z,12.36
2017-09-27T01:35:55.479Z,12.35
2017-09-27T01:36:43.245Z,12.34
2017-09-27T01:37:31.263Z,12.35
2017-09-27T01:38:20.389Z,12.36
2017-09-27T01:39:08.359Z,12.36
2017-09-27T01:39:56.657Z,12.38
2017-09-27T01:40:45.440Z,12.38
2017-09-27T01:41:33.492Z,12.38
2017-09-27T01:42:21.716Z,12.41
2017-09-27T01:43:10.562Z,12.40
2017-09-27T01:43:58.620Z,12.40
2017-09-27T01:44:46.614Z,12.40
2017-09-27T01:45:35.676Z,12.40
2017-09-27T01:46:23.738Z,12.44
2017-09-27T01:47:11.885Z,12.42
2017-09-27T01:47:59.786Z,12.46
2017-09-27T01:48:48.852Z,12.48
2017-09-27T01:49:36.871Z,12.48
2017-09-27T01:50:31.966Z,12.44
2017-09-27T01:51:20.962Z,12.48
2017-09-27T01:52:08.993Z,12.50
2017-09-27T01:53:03.061Z,12.56
2017-09-27T01:53:57.069Z,12.58
2017-09-27T01:54:45.128Z,12.58
2017-09-27T01:55:34.165Z,12.58
2017-09-27T01:56:23.180Z,12.63
2017-09-27T01:57:24.234Z,12.62
2017-09-27T01:58:25.275Z,12.62
2017-09-27T01:59:25.271Z,12.60
2017-09-27T02:00:25.331Z,12.59
2017-09-27T02:01:25.358Z,12.59
2017-09-27T02:02:31.368Z,12.65
2017-09-27T02:03:25.431Z,12.71
2017-09-27T02:04:20.453Z,12.72
2017-09-27T02:05:15.477Z,12.68
2017-09-27T02:06:09.515Z,12.70
2017-09-27T02:06:58.560Z,12.69
2017-09-27T02:07:47.578Z,12.68
2017-09-27T02:08:35.594Z,12.68
2017-09-27T02:09:29.665Z,12.66
2017-09-27T02:10:18.748Z,12.62
2017-09-27T02:11:13.755Z,12.65
2017-09-27T02:12:13.776Z,12.64
2017-09-27T02:13:08.781Z,12.64
2017-09-27T02:14:08.848Z,12.62
2017-09-27T02:15:02.868Z,12.66
2017-09-27T02:15:52.214Z,12.66
2017-09-27T02:16:39.962Z,12.67
2017-09-27T02:17:27.974Z,12.67
2017-09-27T02:18:16.018Z,12.64
2017-09-27T02:19:04.076Z,12.66
2017-09-27T02:20:05.374Z,12.69
2017-09-27T02:21:05.152Z,12.70
2017-09-27T02:21:54.171Z,12.70
2017-09-27T02:22:43.233Z,12.70
2017-09-27T02:23:31.362Z,12.70
2017-09-27T02:24:19.293Z,12.69
2017-09-27T02:25:08.362Z,12.66
2017-09-27T02:25:56.611Z,12.64
2017-09-27T02:26:50.458Z,12.70
2017-09-27T02:27:50.467Z,12.71
2017-09-27T02:28:45.488Z,12.71
2017-09-27T02:29:45.535Z,12.72
2017-09-27T02:30:39.575Z,12.69
2017-09-27T02:31:39.588Z,12.76
2017-09-27T02:32:34.754Z,12.84
2017-09-27T02:33:28.661Z,12.85
2017-09-27T02:34:22.681Z,12.84
2017-09-27T02:35:22.747Z,12.84
2017-09-27T02:36:17.761Z,12.86
2017-09-27T02:37:11.782Z,12.87
2017-09-27T02:38:12.032Z,12.90
2017-09-27T02:39:12.004Z,12.89
2017-09-27T02:40:06.882Z,12.92
2017-09-27T02:40:56.324Z,12.91
2017-09-27T02:41:43.990Z,12.91
2017-09-27T02:42:43.989Z,12.90
2017-09-27T02:43:39.039Z,12.90
2017-09-27T02:44:39.068Z,12.87
2017-09-27T02:45:33.400Z,12.86
2017-09-27T02:46:34.152Z,12.86
2017-09-27T02:47:35.168Z,12.90
2017-09-27T02:48:29.190Z,12.86
2017-09-27T02:49:29.275Z,12.83
2017-09-27T02:50:23.283Z,12.81
2017-09-27T02:51:23.289Z,12.80
2017-09-27T02:52:18.390Z,12.80
2017-09-27T02:53:13.383Z,12.80
2017-09-27T02:54:14.391Z,12.80
2017-09-27T02:55:14.455Z,12.78
2017-09-27T02:56:14.506Z,12.82
2017-09-27T02:57:09.484Z,12.84
2017-09-27T02:58:03.565Z,12.84
2017-09-27T02:59:04.576Z,12.84
2017-09-27T03:00:04.645Z,12.86
2017-09-27T03:00:59.693Z,12.90
2017-09-27T03:01:47.690Z,12.90
2017-09-27T03:02:35.802Z,12.89
2017-09-27T03:03:23.762Z,12.86
2017-09-27T03:04:11.778Z,12.87
2017-09-27T03:05:00.861Z,12.84
2017-09-27T03:05:49.124Z,12.86
2017-09-27T03:06:36.950Z,12.88
2017-09-27T03:07:25.954Z,12.88
2017-09-27T03:08:14.008Z,12.89
2017-09-27T03:09:02.037Z,12.88
2017-09-27T03:09:50.074Z,12.86
2017-09-27T03:10:39.306Z,12.85
2017-09-27T03:11:27.160Z,12.85
2017-09-27T03:12:16.351Z,12.82
2017-09-27T03:13:04.411Z,12.82
2017-09-27T03:13:52.284Z,12.83
2017-09-27T03:14:41.444Z,12.81
2017-09-27T03:15:29.455Z,12.76
2017-09-27T03:16:18.464Z,-40.01
2017-09-27T03:17:06.542Z,12.78
2017-09-27T03:17:55.633Z,12.77
2017-09-27T03:18:45.122Z,12.80
2017-09-27T03:19:34.154Z,12.79
2017-09-27T03:20:23.322Z,12.73
2017-09-27T03:21:23.926Z,12.76
2017-09-27T03:22:18.957Z,12.79
2017-09-27T03:23:08.035Z,12.82
2017-09-27T03:23:57.052Z,12.81
2017-09-27T03:24:45.064Z,12.81
2017-09-27T03:25:33.381Z,12.76
2017-09-27T03:26:22.935Z,12.82
2017-09-27T03:27:12.221Z,-40.01
2017-09-27T03:28:01.168Z,12.82
2017-09-27T03:28:50.522Z,12.80
2017-09-27T03:29:38.270Z,12.78
2017-09-27T03:30:26.490Z,12.76
2017-09-27T03:31:26.361Z,12.81
2017-09-27T03:32:20.411Z,12.81
2017-09-27T03:33:15.230Z,12.86
2017-09-27T03:34:17.729Z,-40.01
2017-09-27T03:35:19.365Z,12.82
2017-09-27T03:36:19.433Z,12.82
2017-09-27T03:37:19.475Z,12.82
2017-09-27T03:38:13.531Z,12.84
2017-09-27T03:39:01.583Z,12.83
2017-09-27T03:39:50.685Z,12.84
2017-09-27T03:40:44.843Z,12.80
2017-09-27T03:41:38.774Z,12.82
2017-09-27T03:42:34.459Z,-40.01
2017-09-27T03:43:30.186Z,12.80
2017-09-27T03:44:20.678Z,-40.01
2017-09-27T03:45:15.091Z,-232.96
2017-09-27T03:46:03.168Z,12.80
2017-09-27T03:46:58.374Z,12.96
2017-09-27T03:47:47.471Z,12.80
2017-09-27T03:48:35.581Z,12.78
2017-09-27T03:49:24.669Z,12.76
2017-09-27T03:50:13.672Z,12.74
2017-09-27T03:51:02.749Z,12.76
2017-09-27T03:51:57.776Z,12.80
2017-09-27T03:52:51.839Z,12.78
2017-09-27T03:53:46.853Z,12.79
2017-09-27T03:54:40.880Z,12.75
2017-09-27T03:55:40.890Z,12.74
2017-09-27T03:56:34.982Z,12.74
2017-09-27T03:57:29.033Z,12.74
2017-09-27T03:58:24.014Z,12.76
2017-09-27T03:59:18.057Z,12.77
2017-09-27T04:00:18.074Z,12.73
2017-09-27T04:01:13.092Z,12.75
2017-09-27T04:02:13.158Z,12.75
2017-09-27T04:03:07.190Z,12.74
2017-09-27T04:04:08.201Z,12.76
2017-09-27T04:05:08.267Z,41.52
2017-09-27T04:06:03.340Z,12.81
2017-09-27T04:06:51.512Z,12.85
2017-09-27T04:07:39.442Z,12.84
2017-09-27T04:08:27.562Z,12.83
2017-09-27T04:09:15.533Z,12.83
2017-09-27T04:10:03.629Z,12.84
2017-09-27T04:10:51.747Z,12.84
2017-09-27T04:11:40.727Z,12.86
2017-09-27T04:12:28.796Z,12.88
2017-09-27T04:13:16.803Z,12.88
2017-09-27T04:14:05.874Z,12.89
2017-09-27T04:14:54.871Z,12.90
2017-09-27T04:15:44.137Z,12.88
2017-09-27T04:16:33.123Z,12.89
2017-09-27T04:17:21.370Z,12.88
2017-09-27T04:18:15.345Z,12.89
2017-09-27T04:19:09.437Z,12.89
2017-09-27T04:20:03.262Z,12.89
2017-09-27T04:20:58.555Z,12.89
2017-09-27T04:21:53.330Z,12.90
2017-09-27T04:22:41.359Z,12.90
2017-09-27T04:23:30.427Z,12.88
2017-09-27T04:24:18.471Z,12.86
2017-09-27T04:25:06.473Z,12.84
2017-09-27T04:26:07.513Z,12.84
2017-09-27T04:27:01.556Z,12.85
2017-09-27T04:28:01.574Z,12.84
2017-09-27T04:28:56.634Z,12.82
2017-09-27T04:29:51.773Z,12.85
2017-09-27T04:30:51.790Z,12.78
2017-09-27T04:31:46.742Z,12.78
2017-09-27T04:32:41.859Z,12.76
2017-09-27T04:33:41.787Z,12.76
2017-09-27T04:34:37.003Z,12.76
2017-09-27T04:35:32.051Z,12.73
2017-09-27T04:36:32.889Z,12.75
2017-09-27T04:37:32.946Z,12.75
2017-09-27T04:38:32.961Z,12.71
2017-09-27T04:39:27.979Z,12.72
2017-09-27T04:40:22.080Z,12.69
2017-09-27T04:41:22.083Z,12.71
2017-09-27T04:42:17.082Z,12.70
2017-09-27T04:43:17.146Z,12.73
2017-09-27T04:44:17.166Z,12.76
2017-09-27T04:45:17.179Z,12.74
2017-09-27T04:46:11.253Z,12.77
2017-09-27T04:46:59.287Z,12.78
2017-09-27T04:47:47.289Z,12.75
2017-09-27T04:48:36.373Z,12.73
2017-09-27T04:49:25.386Z,12.73
2017-09-27T04:50:19.453Z,12.71
2017-09-27T04:51:13.786Z,12.71
2017-09-27T04:52:01.549Z,12.72
2017-09-27T04:52:50.542Z,12.70
2017-09-27T04:53:38.581Z,12.70
2017-09-27T04:54:33.652Z,12.68
2017-09-27T04:55:28.837Z,12.66
2017-09-27T04:56:17.678Z,12.66
2017-09-27T04:57:12.775Z,12.66
2017-09-27T04:58:07.917Z,12.64
2017-09-27T04:59:07.825Z,12.64
2017-09-27T04:59:56.855Z,12.63
2017-09-27T05:00:56.871Z,12.64
2017-09-27T05:01:45.942Z,12.64
2017-09-27T05:02:40.981Z,12.64
2017-09-27T05:03:28.979Z,12.63
2017-09-27T05:04:18.032Z,12.62
2017-09-27T05:05:12.365Z,12.60
2017-09-27T05:06:07.129Z,12.62
2017-09-27T05:07:01.205Z,12.62
2017-09-27T05:07:56.185Z,12.66
2017-09-27T05:08:56.211Z,12.72
2017-09-27T05:09:44.263Z,12.76
2017-09-27T05:10:39.283Z,12.77
2017-09-27T05:11:39.339Z,12.76
2017-09-27T05:12:45.359Z,12.74
2017-09-27T05:13:40.387Z,12.72
2017-09-27T05:14:34.437Z,12.69
2017-09-27T05:15:34.462Z,12.70
2017-09-27T05:16:29.476Z,12.73
2017-09-27T05:17:23.545Z,12.74
2017-09-27T05:18:18.785Z,12.74
2017-09-27T05:19:18.637Z,12.70
2017-09-27T05:20:19.638Z,12.66
2017-09-27T05:21:19.657Z,12.69
2017-09-27T05:22:19.677Z,12.72
2017-09-27T05:23:19.733Z,12.72
2017-09-27T05:24:19.804Z,12.71
2017-09-27T05:25:14.099Z,12.70
2017-09-27T05:26:01.957Z,12.76
2017-09-27T05:26:50.868Z,12.75
2017-09-27T05:27:50.878Z,12.78
2017-09-27T05:28:44.955Z,12.80
2017-09-27T05:29:45.993Z,12.84
2017-09-27T05:30:39.992Z,12.78
2017-09-27T05:31:40.069Z,12.78
2017-09-27T05:32:35.089Z,12.77
2017-09-27T05:33:30.089Z,12.78
2017-09-27T05:34:24.153Z,12.79
2017-09-27T05:35:19.603Z,12.84
2017-09-27T05:36:20.204Z,12.82
2017-09-27T05:37:22.727Z,-40.01
2017-09-27T05:38:25.183Z,-40.01
2017-09-27T05:39:16.671Z,-40.01
2017-09-27T05:40:08.181Z,-40.01
2017-09-27T05:41:04.657Z,-40.01
2017-09-27T05:42:02.147Z,-40.01
2017-09-27T05:42:59.653Z,-40.01
2017-09-27T05:44:03.124Z,-40.01
2017-09-27T05:45:00.652Z,-40.01
2017-09-27T05:45:57.078Z,-40.01
2017-09-27T05:46:47.710Z,-40.01
2017-09-27T05:47:39.066Z,-40.01
2017-09-27T05:48:35.556Z,-40.01
2017-09-27T05:49:26.028Z,-40.01
2017-09-27T05:50:22.659Z,-40.01
2017-09-27T05:51:20.022Z,-40.01
2017-09-27T05:52:22.511Z,-40.01
2017-09-27T05:53:19.976Z,-40.01
2017-09-27T05:54:17.472Z,-40.01
2017-09-27T05:55:20.244Z,-40.01
2017-09-27T05:56:22.453Z,-40.01
2017-09-27T05:57:26.006Z,-40.01
2017-09-27T05:58:23.442Z,-40.01
2017-09-27T05:59:19.877Z,-40.01
2017-09-27T06:00:17.619Z,-40.01
2017-09-27T06:01:13.877Z,-40.01
2017-09-27T06:02:11.370Z,-40.01
2017-09-27T06:03:13.802Z,-40.01
2017-09-27T06:04:15.974Z,-40.01
2017-09-27T06:05:13.412Z,-40.01
2017-09-27T06:06:15.780Z,-40.01
2017-09-27T06:07:12.435Z,-40.01
2017-09-27T06:08:08.738Z,-40.01
2017-09-27T06:09:06.397Z,-40.01
2017-09-27T06:10:08.589Z,-313.93
2017-09-27T06:11:11.361Z,-40.01
2017-09-27T06:12:08.586Z,-40.01
2017-09-27T06:13:05.075Z,-40.01
2017-09-27T06:14:02.552Z,-40.01
2017-09-27T06:14:59.050Z,-40.01
2017-09-27T06:15:55.514Z,-40.01
2017-09-27T06:16:58.980Z,-40.01
2017-09-27T06:18:01.482Z,-40.01
2017-09-27T06:18:57.980Z,-40.01
2017-09-27T06:20:00.473Z,-40.01
2017-09-27T06:21:02.970Z,-40.01
2017-09-27T06:22:05.440Z,-40.01
2017-09-27T06:23:01.925Z,-40.01
2017-09-27T06:24:04.377Z,-40.01
2017-09-27T06:25:06.962Z,-40.01
2017-09-27T06:26:03.366Z,-40.01
2017-09-27T06:27:00.862Z,-40.01
2017-09-27T06:27:58.357Z,-40.01
2017-09-27T06:29:06.853Z,-40.01
2017-09-27T06:30:04.289Z,-40.01
2017-09-27T06:31:01.783Z,-40.01
2017-09-27T06:31:59.526Z,-40.01
2017-09-27T06:32:56.772Z,-40.01
2017-09-27T06:33:54.259Z,-40.01
2017-09-27T06:34:51.760Z,-40.01
2017-09-27T06:35:49.251Z,-40.01
2017-09-27T06:36:46.264Z,13.75
2017-09-27T06:37:48.737Z,-40.01
2017-09-27T06:38:51.195Z,-40.01
2017-09-27T06:39:48.679Z,-40.01
2017-09-27T06:40:39.183Z,-40.01
2017-09-27T06:41:30.672Z,-40.01
2017-09-27T06:42:21.186Z,-40.01
2017-09-27T06:43:12.881Z,-40.01
2017-09-27T06:44:03.175Z,-40.01
2017-09-27T06:44:59.690Z,-40.01
2017-09-27T06:45:57.385Z,-40.01
2017-09-27T06:47:00.607Z,-40.01
2017-09-27T06:47:57.102Z,-40.01
2017-09-27T06:48:53.615Z,-40.01
2017-09-27T06:49:56.084Z,-40.01
2017-09-27T06:50:52.566Z,-40.01
2017-09-27T06:51:44.063Z,-40.01
2017-09-27T06:52:41.564Z,-40.01
2017-09-27T06:53:44.063Z,-40.01
2017-09-27T06:54:41.548Z,-40.01
2017-09-27T06:55:39.037Z,-40.01
2017-09-27T06:56:42.509Z,-40.01
2017-09-27T06:57:50.980Z,-40.01
2017-09-27T06:58:54.483Z,-40.01
2017-09-27T06:59:56.968Z,-40.01
2017-09-27T07:00:54.450Z,-40.01
2017-09-27T07:01:51.146Z,-40.01
2017-09-27T07:02:48.389Z,-40.01
2017-09-27T07:03:50.881Z,-40.01
2017-09-27T07:04:53.385Z,-40.01
2017-09-27T07:06:02.867Z,-40.01
2017-09-27T07:06:53.511Z,-40.01
2017-09-27T07:07:55.904Z,-40.01
2017-09-27T07:08:52.325Z,-40.01
2017-09-27T07:09:42.823Z,-40.01
2017-09-27T07:10:34.525Z,-40.01
2017-09-27T07:11:30.778Z,-40.01
2017-09-27T07:12:21.280Z,-40.01
2017-09-27T07:13:12.778Z,-40.01
2017-09-27T07:14:10.266Z,-40.01
2017-09-27T07:15:07.778Z,-40.01
2017-09-27T07:16:11.263Z,-40.01
2017-09-27T07:17:07.800Z,-40.01
2017-09-27T07:17:59.247Z,-40.01
2017-09-27T07:18:55.751Z,-40.01
2017-09-27T07:20:04.201Z,-40.01
2017-09-27T07:21:01.703Z,-40.01
2017-09-27T07:21:52.184Z,-40.01
2017-09-27T07:22:48.671Z,-40.01
2017-09-27T07:23:45.172Z,-40.01
2017-09-27T07:24:42.679Z,-40.01
2017-09-27T07:25:45.157Z,-40.01
2017-09-27T07:26:48.642Z,-40.01
2017-09-27T07:27:57.154Z,-40.01
2017-09-27T07:28:59.702Z,-40.01
2017-09-27T07:30:03.074Z,-40.01
2017-09-27T07:30:59.564Z,-40.01
2017-09-27T07:31:56.065Z,-40.01
2017-09-27T07:32:53.573Z,-40.01
2017-09-27T07:33:51.274Z,-40.01
2017-09-27T07:34:47.525Z,-40.01
2017-09-27T07:35:50.037Z,-40.01
2017-09-27T07:36:41.481Z,-40.01
2017-09-27T07:37:37.980Z,-40.01
2017-09-27T07:38:35.477Z,-40.01
2017-09-27T07:39:37.970Z,-40.01
2017-09-27T07:40:34.470Z,-40.01
2017-09-27T07:41:36.975Z,-40.01
2017-09-27T07:42:39.450Z,-40.01
2017-09-27T07:43:36.058Z,-40.01
2017-09-27T07:44:32.533Z,-40.01
2017-09-27T07:45:29.508Z,-40.01
2017-09-27T07:46:25.749Z,-40.01
2017-09-27T07:47:22.238Z,-40.01
2017-09-27T07:48:19.692Z,-40.01
2017-09-27T07:49:11.184Z,-40.01
2017-09-27T07:50:07.685Z,-40.01
2017-09-27T07:51:04.993Z,41.91
2017-09-27T07:52:01.489Z,-40.01
2017-09-27T07:52:58.971Z,-40.01
2017-09-27T07:53:59.946Z,-40.12
2017-09-27T07:54:51.460Z,-40.01
2017-09-27T07:55:48.902Z,-40.01
2017-09-27T07:56:52.424Z,-40.01
2017-09-27T07:57:43.294Z,-40.01
2017-09-27T07:58:45.785Z,-40.01
2017-09-27T07:59:42.288Z,-40.01
2017-09-27T08:00:38.786Z,-40.01
2017-09-27T08:01:35.278Z,-40.01
2017-09-27T08:02:32.791Z,-40.01
2017-09-27T08:03:29.277Z,-40.01
2017-09-27T08:04:31.764Z,-40.01
2017-09-27T08:05:34.232Z,-40.01
2017-09-27T08:06:25.751Z,-40.01
2017-09-27T08:07:16.229Z,-40.01
2017-09-27T08:08:13.771Z,-40.01
2017-09-27T08:09:11.183Z,-40.01
2017-09-27T08:10:13.987Z,-40.01
2017-09-27T08:11:16.172Z,-40.01
2017-09-27T08:12:18.668Z,-40.01
2017-09-27T08:13:15.177Z,-40.01
2017-09-27T08:14:17.359Z,-42.01
2017-09-27T08:15:20.071Z,-40.01
2017-09-27T08:16:22.303Z,-40.01
2017-09-27T08:17:19.850Z,-40.01
2017-09-27T08:18:23.468Z,-40.01
2017-09-27T08:19:20.780Z,-40.01
2017-09-27T08:20:18.573Z,-40.01
2017-09-27T08:21:20.783Z,-40.01
2017-09-27T08:22:24.345Z,-40.01
2017-09-27T08:23:21.829Z,-40.01
2017-09-27T08:24:19.468Z,-40.01
2017-09-27T08:25:22.131Z,-40.01
2017-09-27T08:26:24.232Z,-40.01
2017-09-27T08:27:27.690Z,-40.01
2017-09-27T08:28:25.379Z,-40.01
2017-09-27T08:29:22.713Z,-40.01
2017-09-27T08:30:25.162Z,-40.01
2017-09-27T08:31:28.660Z,-40.01
2017-09-27T08:32:26.408Z,-40.01
2017-09-27T08:33:28.597Z,-40.01
2017-09-27T08:34:31.103Z,-40.01
2017-09-27T08:35:33.649Z,-40.01
2017-09-27T08:36:30.098Z,-40.01
2017-09-27T08:37:26.621Z,-40.01
2017-09-27T08:38:18.082Z,-40.01
2017-09-27T08:39:09.886Z,-40.01
2017-09-27T08:40:00.083Z,-40.01
2017-09-27T08:40:51.611Z,-40.01
2017-09-27T08:41:48.135Z,-40.01
2017-09-27T08:42:45.592Z,-40.01
2017-09-27T08:43:43.072Z,-40.01
2017-09-27T08:44:45.546Z,-40.01
2017-09-27T08:45:42.041Z,-40.01
2017-09-27T08:46:44.565Z,-40.01
2017-09-27T08:47:47.048Z,-40.01
2017-09-27T08:48:38.773Z,-40.01
2017-09-27T08:49:35.024Z,-40.01
2017-09-27T08:50:31.514Z,-40.01
2017-09-27T08:51:27.985Z,-40.01
2017-09-27T08:52:25.591Z,-40.01
2017-09-27T08:53:21.984Z,-40.01
2017-09-27T08:54:24.499Z,-40.01
2017-09-27T08:55:27.974Z,-40.01
2017-09-27T08:56:30.483Z,-40.01
2017-09-27T08:57:26.981Z,-40.01
2017-09-27T08:58:23.474Z,-40.01
2017-09-27T08:59:19.970Z,-40.01
2017-09-27T09:00:16.738Z,-40.01
2017-09-27T09:01:14.053Z,-40.01
2017-09-27T09:02:11.454Z,-40.01
2017-09-27T09:03:13.963Z,-40.01
2017-09-27T09:04:10.443Z,-40.01
2017-09-27T09:05:06.944Z,-40.01
2017-09-27T09:06:02.766Z,41.91
2017-09-27T09:07:05.262Z,-40.01
2017-09-27T09:08:07.798Z,-40.01
2017-09-27T09:08:59.269Z,-40.01
2017-09-27T09:09:55.810Z,-40.01
2017-09-27T09:10:47.245Z,-40.01
2017-09-27T09:11:49.753Z,-40.01
2017-09-27T09:12:53.244Z,-40.01
2017-09-27T09:13:50.741Z,-40.01
2017-09-27T09:14:47.267Z,-40.01
2017-09-27T09:15:44.735Z,-40.01
2017-09-27T09:16:47.369Z,-40.01
2017-09-27T09:17:49.944Z,-40.01
2017-09-27T09:18:52.492Z,-40.01
2017-09-27T09:19:49.778Z,-40.01
2017-09-27T09:20:41.367Z,-40.01
2017-09-27T09:21:37.760Z,-40.01
2017-09-27T09:22:28.387Z,-40.01
2017-09-27T09:23:19.916Z,-40.01
2017-09-27T09:24:10.418Z,-40.01
2017-09-27T09:25:06.973Z,-40.01
2017-09-27T09:25:58.429Z,-40.01
2017-09-27T09:26:55.970Z,-40.01
2017-09-27T09:27:53.471Z,-40.01
2017-09-27T09:28:55.992Z,-40.01
2017-09-27T09:29:52.461Z,-40.01
2017-09-27T09:30:42.916Z,-40.01
2017-09-27T09:31:34.470Z,-40.01
2017-09-27T09:32:25.959Z,-40.01
2017-09-27T09:33:17.426Z,-40.01
2017-09-27T09:34:07.930Z,-40.01
2017-09-27T09:34:58.229Z,-40.01
2017-09-27T09:35:53.119Z,20.14
2017-09-27T09:36:49.123Z,-40.01
2017-09-27T09:37:43.423Z,-40.02
2017-09-27T09:38:44.361Z,18.47
2017-09-27T09:39:35.998Z,-40.01
2017-09-27T09:40:31.335Z,-40.01
2017-09-27T09:41:21.897Z,-40.01
2017-09-27T09:42:16.742Z,-40.01
2017-09-27T09:43:13.503Z,18.40
2017-09-27T09:44:04.898Z,-40.01
2017-09-27T09:45:01.463Z,-40.01
2017-09-27T09:45:58.009Z,-40.01
2017-09-27T09:46:48.510Z,-40.01
2017-09-27T09:47:44.996Z,-40.01
2017-09-27T09:48:41.440Z,-40.01
2017-09-27T09:49:38.948Z,-40.01
2017-09-27T09:50:41.490Z,-40.01
2017-09-27T09:51:32.891Z,-40.01
2017-09-27T09:52:23.488Z,-40.01
2017-09-27T09:53:14.004Z,-40.01
2017-09-27T09:54:04.512Z,-40.01
2017-09-27T09:55:01.056Z,-40.01
2017-09-27T09:56:03.459Z,-40.01
2017-09-27T09:57:01.032Z,-40.01
2017-09-27T09:57:51.552Z,-40.01
2017-09-27T09:58:48.998Z,-40.01
2017-09-27T09:59:46.544Z,-40.01
2017-09-27T10:00:38.035Z,-40.01
2017-09-27T10:01:40.586Z,-40.01
2017-09-27T10:02:32.027Z,-40.01
2017-09-27T10:03:27.217Z,-40.01
2017-09-27T10:04:15.943Z,-40.01
2017-09-27T10:05:11.011Z,21.13
2017-09-27T10:06:00.304Z,21.71
2017-09-27T10:06:54.350Z,21.92
2017-09-27T10:07:50.184Z,-305.25
2017-09-27T10:08:52.625Z,-40.01
2017-09-27T10:09:55.195Z,-40.01
2017-09-27T10:10:50.103Z,-40.01
2017-09-27T10:11:45.279Z,23.23
2017-09-27T10:12:40.326Z,23.41
2017-09-27T10:13:34.602Z,23.18
2017-09-27T10:14:28.701Z,23.03
2017-09-27T10:15:22.852Z,22.63
2017-09-27T10:16:17.897Z,21.96
2017-09-27T10:17:06.941Z,21.06
2017-09-27T10:18:01.009Z,20.54
2017-09-27T10:18:56.098Z,20.24
2017-09-27T10:19:45.352Z,20.00
2017-09-27T10:20:39.611Z,19.95
2017-09-27T10:21:29.434Z,-40.01
2017-09-27T10:22:18.466Z,20.09
2017-09-27T10:23:18.978Z,20.24
2017-09-27T10:24:08.398Z,19.84
2017-09-27T10:25:02.994Z,19.48
2017-09-27T10:25:56.992Z,19.04
2017-09-27T10:26:58.085Z,18.73
2017-09-27T10:27:53.382Z,19.06
2017-09-27T10:28:48.491Z,19.70
2017-09-27T10:29:37.526Z,19.85
2017-09-27T10:30:26.798Z,19.94
2017-09-27T10:31:15.334Z,19.85
2017-09-27T10:32:10.927Z,-40.01
2017-09-27T10:33:08.412Z,-40.01
2017-09-27T10:34:10.167Z,21.43
2017-09-27T10:35:06.708Z,-40.01
2017-09-27T10:36:03.195Z,-40.01
2017-09-27T10:37:00.677Z,-40.01
2017-09-27T10:37:57.198Z,-40.01
2017-09-27T10:38:59.080Z,-40.01
2017-09-27T10:39:49.539Z,-40.01
2017-09-27T10:40:46.557Z,21.19
2017-09-27T10:41:43.044Z,21.18
2017-09-27T10:42:45.210Z,-40.01
2017-09-27T10:43:41.777Z,-40.01
2017-09-27T10:44:44.277Z,-40.01
2017-09-27T10:45:35.698Z,-40.01
2017-09-27T10:46:27.278Z,-40.01
2017-09-27T10:47:18.810Z,-40.01
2017-09-27T10:48:15.295Z,-40.01
2017-09-27T10:49:06.761Z,-40.01
2017-09-27T10:50:04.301Z,-40.01
2017-09-27T10:51:01.652Z,-40.01
2017-09-27T10:51:58.269Z,-40.01
2017-09-27T10:52:54.734Z,-40.01
2017-09-27T10:53:45.294Z,-40.01
2017-09-27T10:54:35.784Z,-40.01
2017-09-27T10:55:33.290Z,-40.01
2017-09-27T10:56:23.826Z,-40.01
2017-09-27T10:57:21.304Z,-40.01
2017-09-27T10:58:18.826Z,-40.01
2017-09-27T10:59:16.291Z,-40.01
2017-09-27T11:00:19.882Z,-40.01
2017-09-27T11:01:16.165Z,-40.01
2017-09-27T11:02:12.764Z,-40.01
2017-09-27T11:03:04.390Z,-40.01
2017-09-27T11:04:06.660Z,-40.01
2017-09-27T11:05:03.080Z,-40.01
2017-09-27T11:06:00.600Z,-40.01
2017-09-27T11:06:57.242Z,-40.01
2017-09-27T11:07:48.769Z,-40.01
2017-09-27T11:08:57.113Z,-40.01
2017-09-27T11:09:59.678Z,-40.01
2017-09-27T11:10:56.337Z,-40.01
2017-09-27T11:11:59.881Z,-40.01
2017-09-27T11:13:02.178Z,-40.01
2017-09-27T11:14:04.838Z,-40.01
2017-09-27T11:14:56.116Z,-40.01
2017-09-27T11:15:47.651Z,-40.01
2017-09-27T11:16:45.167Z,-40.01
2017-09-27T11:17:41.651Z,-40.01
2017-09-27T11:18:39.150Z,-40.01
2017-09-27T11:19:35.653Z,-40.01
2017-09-27T11:20:32.162Z,-40.01
2017-09-27T11:21:29.861Z,-40.01
2017-09-27T11:22:21.226Z,-40.01
2017-09-27T11:23:17.867Z,-40.01
2017-09-27T11:24:20.428Z,-40.01
2017-09-27T11:25:22.967Z,-40.01
2017-09-27T11:26:14.366Z,-40.01
2017-09-27T11:27:10.975Z,-40.01
2017-09-27T11:28:06.913Z,-40.01
2017-09-27T11:28:56.967Z,-40.01
2017-09-27T11:29:59.496Z,-40.01
2017-09-27T11:30:56.923Z,-40.01
2017-09-27T11:31:47.450Z,-40.01
2017-09-27T11:32:49.952Z,-40.01
2017-09-27T11:33:46.776Z,24.15
2017-09-27T11:34:43.556Z,23.82
2017-09-27T11:35:40.066Z,-40.01
2017-09-27T11:36:31.575Z,-40.01
2017-09-27T11:37:34.108Z,-40.01
2017-09-27T11:38:24.615Z,-40.01
2017-09-27T11:39:21.114Z,-40.01
2017-09-27T11:40:17.621Z,-40.01